Time;durP1;ratioP1;P1;durP2;ratioP2;P2;SDS_P1;SDS_P2;PMS_P1;PMS_P2;Temp;Humidity;BMP_temperature;BMP_pressure;BME280_temperature;BME280_humidity;BME280_pressure;Samples;Min_cycle;Max_cycle;Signal;HPM_P1;HPM_P2
2022/10/24 00:03:42;;;;;;;2.03;0.70;;;;;;;1.65;89.22;100529.22;10427264;28;20045;-82
2022/10/24 00:08:45;;;;;;;1.08;0.85;;;;;;;1.61;89.21;100532.63;10401477;28;20053;-81
2022/10/24 00:13:48;;;;;;;1.30;1.05;;;;;;;1.71;89.58;100541.00;10402008;28;20056;-81
2022/10/24 00:18:50;;;;;;;1.17;0.68;;;;;;;1.52;89.21;100545.59;10440011;28;20049;-81
2022/10/24 00:23:52;;;;;;;1.55;0.80;;;;;;;1.51;89.39;100533.94;10447049;28;20068;-81
2022/10/24 00:29:00;;;;;;;1.90;0.85;;;;;;;1.39;89.08;100541.16;10446805;28;20041;-81
2022/10/24 00:34:03;;;;;;;0.73;0.52;;;;;;;1.31;89.51;100549.56;10448272;28;20048;-83
2022/10/24 00:39:06;;;;;;;1.33;0.90;;;;;;;1.29;89.56;100548.13;10449908;28;20049;-83
2022/10/24 00:44:24;;;;;;;0.73;0.60;;;;;;;1.20;89.41;100545.69;10450456;28;20424;-82
2022/10/24 00:49:47;;;;;;;0.70;0.70;;;;;;;1.21;89.51;100557.31;10448071;28;20049;-81
2022/10/24 00:54:50;;;;;;;0.88;0.75;;;;;;;1.22;89.33;100567.13;10448623;28;20096;-81
2022/10/24 00:59:56;;;;;;;1.05;0.80;;;;;;;1.22;89.67;100556.31;10447106;28;20041;-81
2022/10/24 01:04:58;;;;;;;0.50;0.50;;;;;;;1.12;89.68;100569.47;10431194;28;20064;-82
2022/10/24 01:10:06;;;;;;;1.23;0.75;;;;;;;1.13;89.51;100569.25;10448670;28;20060;-82
2022/10/24 01:15:21;;;;;;;1.48;0.80;;;;;;;1.04;89.71;100570.59;10446843;28;20557;-81
2022/10/24 01:20:29;;;;;;;0.95;0.73;;;;;;;1.05;89.33;100579.53;10446546;28;20038;-81
2022/10/24 01:25:49;;;;;;;0.70;0.50;;;;;;;0.99;89.04;100585.78;10443661;28;20178;-80
2022/10/24 01:30:56;;;;;;;2.42;0.88;;;;;;;0.99;89.19;100585.78;10446335;28;20055;-80
2022/10/24 01:36:34;;;;;;;1.23;0.83;;;;;;;0.92;89.71;100595.84;10446591;28;20424;-83
2022/10/24 01:41:39;;;;;;;2.70;0.82;;;;;;;0.84;88.97;100597.72;10416294;28;20492;-81
2022/10/24 01:46:47;;;;;;;1.52;0.95;;;;;;;0.74;89.07;100608.22;10408428;28;20051;-81
2022/10/24 01:51:59;;;;;;;0.80;0.55;;;;;;;0.70;89.70;100614.28;10444105;28;20488;-80
2022/10/24 01:57:07;;;;;;;1.38;0.70;;;;;;;0.81;89.88;100611.69;10444845;28;20044;-80
2022/10/24 02:02:19;;;;;;;2.00;0.80;;;;;;;0.65;89.77;100625.69;10441075;28;20045;-82
2022/10/24 02:07:22;;;;;;;2.03;0.77;;;;;;;0.61;89.71;100624.47;10430489;28;20049;-82
2022/10/24 02:12:25;;;;;;;3.22;0.82;;;;;;;0.67;90.05;100637.09;10444905;28;20061;-81
2022/10/24 02:17:28;;;;;;;2.33;0.70;;;;;;;0.63;89.96;100641.28;10443324;28;20554;-82
2022/10/24 02:22:49;;;;;;;2.60;0.90;;;;;;;0.75;90.23;100644.97;10423780;28;20052;-82
2022/10/24 02:28:10;;;;;;;1.65;0.80;;;;;;;0.62;89.65;100653.13;10402543;28;20693;-82
2022/10/24 02:33:14;;;;;;;1.38;0.70;;;;;;;0.66;90.28;100651.66;10393102;28;20041;-82
2022/10/24 02:38:20;;;;;;;2.03;0.70;;;;;;;0.56;89.35;100654.84;10427169;28;20049;-80
2022/10/24 02:43:24;;;;;;;0.68;0.68;;;;;;;0.50;89.97;100652.97;10443069;28;20048;-81
2022/10/24 02:48:34;;;;;;;0.70;0.70;;;;;;;0.48;90.24;100665.88;10410064;28;20060;-81
2022/10/24 02:53:36;;;;;;;0.70;0.70;;;;;;;0.65;89.71;100674.31;10442441;28;20037;-81
2022/10/24 02:58:38;;;;;;;0.88;0.60;;;;;;;0.48;90.05;100682.06;10442127;28;20053;-81
2022/10/24 03:04:05;;;;;;;4.22;1.10;;;;;;;0.50;90.15;100681.84;10442139;28;20038;-81
2022/10/24 03:09:08;;;;;;;0.85;0.70;;;;;;;0.54;90.11;100675.81;10441924;28;20049;-81
2022/10/24 03:14:11;;;;;;;2.65;0.80;;;;;;;0.46;90.30;100680.63;10441015;28;20048;-80
2022/10/24 03:19:13;;;;;;;1.13;0.93;;;;;;;0.32;89.79;100687.94;10439343;28;20397;-82
2022/10/24 03:24:15;;;;;;;2.08;0.85;;;;;;;0.30;89.93;100698.94;10436240;28;20069;-82
2022/10/24 03:29:19;;;;;;;1.83;0.75;;;;;;;0.21;90.17;100705.63;10402759;28;20041;-81
2022/10/24 03:34:21;;;;;;;1.27;0.70;;;;;;;0.10;90.55;100711.66;10422181;28;20044;-82
2022/10/24 03:39:23;;;;;;;1.70;0.75;;;;;;;0.10;90.42;100705.44;10437490;28;20041;-82
2022/10/24 03:44:26;;;;;;;1.70;1.00;;;;;;;0.15;90.63;100711.03;10444519;28;20050;-83
2022/10/24 03:49:28;;;;;;;0.93;0.68;;;;;;;0.20;91.15;100722.88;10425447;28;20060;-82
2022/10/24 03:54:31;;;;;;;0.73;0.55;;;;;;;0.16;91.02;100720.78;10450894;28;20049;-82
2022/10/24 03:59:33;;;;;;;2.28;0.82;;;;;;;0.24;91.11;100717.88;10450740;28;20046;-81
2022/10/24 04:04:35;;;;;;;1.52;0.82;;;;;;;0.14;91.04;100726.38;10451167;28;20037;-81
2022/10/24 04:09:38;;;;;;;0.85;0.60;;;;;;;0.12;90.64;100725.78;10448582;28;20084;-82
2022/10/24 04:14:40;;;;;;;0.77;0.77;;;;;;;0.13;91.24;100738.22;10451609;28;20042;-87
2022/10/24 04:19:43;;;;;;;3.60;1.02;;;;;;;0.11;91.19;100744.88;10461591;28;20063;-85
2022/10/24 04:24:50;;;;;;;2.38;1.20;;;;;;;0.11;91.06;100742.16;10460157;28;20041;-87
2022/10/24 04:29:52;;;;;;;2.97;0.90;;;;;;;0.19;91.32;100742.78;10474649;28;20049;-86
2022/10/24 04:35:00;;;;;;;3.83;1.13;;;;;;;0.17;91.27;100757.50;10453852;28;20041;-84
2022/10/24 04:40:03;;;;;;;1.85;0.73;;;;;;;0.33;91.05;100745.44;10447966;28;20834;-84
2022/10/24 04:45:06;;;;;;;0.98;0.70;;;;;;;0.37;90.99;100738.59;10463401;28;20052;-85
2022/10/24 04:50:09;;;;;;;3.50;1.13;;;;;;;0.36;90.72;100740.47;10463254;28;20055;-84
2022/10/24 04:55:11;;;;;;;1.08;0.90;;;;;;;0.43;90.56;100737.75;10461355;28;20056;-83
2022/10/24 05:00:14;;;;;;;3.10;1.08;;;;;;;0.46;90.68;100743.53;10455738;28;21741;-87
2022/10/24 05:05:16;;;;;;;2.28;0.90;;;;;;;0.47;89.67;100749.78;10447024;28;20037;-89
2022/10/24 05:10:21;;;;;;;4.18;1.27;;;;;;;0.54;90.21;100759.53;10463563;28;20407;-86
2022/10/24 05:15:24;;;;;;;1.90;1.05;;;;;;;0.57;89.86;100755.56;10447248;28;20124;-86
2022/10/24 05:20:26;;;;;;;2.20;1.20;;;;;;;0.76;89.92;100760.06;10434979;28;20042;-86
2022/10/24 05:25:29;;;;;;;3.03;1.45;;;;;;;1.26;89.84;100764.81;10446547;28;20060;-88
2022/10/24 05:30:31;;;;;;;3.90;1.30;;;;;;;1.67;89.76;100767.03;10482925;28;20499;-88
2022/10/24 05:35:33;;;;;;;3.08;1.27;;;;;;;2.01;88.71;100780.06;10458274;28;20045;-88
2022/10/24 05:40:35;;;;;;;3.97;1.35;;;;;;;2.41;87.24;100788.63;10445263;28;20037;-87
2022/10/24 05:45:38;;;;;;;4.05;1.42;;;;;;;2.72;85.03;100797.69;10443788;28;20528;-88
2022/10/24 05:50:41;;;;;;;2.35;1.30;;;;;;;2.97;83.85;100798.44;10445928;28;20041;-87
2022/10/24 05:55:43;;;;;;;4.55;1.60;;;;;;;3.15;82.22;100807.63;10430181;28;20041;-87
2022/10/24 06:00:47;;;;;;;3.55;1.70;;;;;;;3.56;81.34;100812.25;10446336;28;20550;-88
2022/10/24 06:05:50;;;;;;;2.38;1.15;;;;;;;3.67;79.94;100806.06;10444124;28;20045;-90
2022/10/24 06:10:52;;;;;;;2.55;1.33;;;;;;;3.70;80.07;100821.03;10445624;28;20420;-88
2022/10/24 06:15:54;;;;;;;3.45;1.30;;;;;;;3.74;78.77;100820.34;10445047;28;20075;-87
2022/10/24 06:21:01;;;;;;;1.90;1.25;;;;;;;3.35;79.31;100838.00;10427424;28;20037;-90
2022/10/24 06:26:09;;;;;;;2.38;1.10;;;;;;;2.97;80.15;100841.81;10445354;28;20527;-89
2022/10/24 06:31:19;;;;;;;2.53;0.90;;;;;;;2.74;80.85;100847.06;10443514;28;20038;-88
2022/10/24 06:36:21;;;;;;;6.85;1.40;;;;;;;2.51;81.71;100834.19;10445108;28;20080;-88
2022/10/24 06:41:48;;;;;;;1.65;1.02;;;;;;;2.41;82.93;100844.69;10444584;28;20056;-88
2022/10/24 06:46:51;;;;;;;3.70;1.10;;;;;;;2.50;82.55;100843.34;10443452;28;20049;-89
2022/10/24 06:51:53;;;;;;;2.25;1.00;;;;;;;2.66;82.03;100850.09;10443035;28;20041;-89
2022/10/24 06:56:56;;;;;;;1.60;1.10;;;;;;;3.01;81.49;100858.47;10443572;28;20048;-89
2022/10/24 07:01:58;;;;;;;1.80;0.90;;;;;;;3.55;79.91;100867.59;10433575;28;20039;-89
2022/10/24 07:07:00;;;;;;;2.88;1.73;;;;;;;3.92;77.09;100862.88;10403105;28;20515;-89
2022/10/24 07:12:06;;;;;;;2.22;0.98;;;;;;;4.29;75.86;100862.72;10402788;28;20045;-88
2022/10/24 07:17:08;;;;;;;1.75;0.85;;;;;;;4.14;75.67;100872.13;10401954;28;20784;-90
2022/10/24 07:22:16;;;;;;;1.42;0.80;;;;;;;3.80;74.87;100875.59;10402449;28;20041;-89
2022/10/24 07:27:18;;;;;;;4.80;0.93;;;;;;;4.17;74.57;100871.69;10400913;28;20042;-88
2022/10/24 07:32:20;;;;;;;1.30;0.80;;;;;;;4.42;73.04;100876.09;10420381;28;20056;-89
2022/10/24 07:37:23;;;;;;;2.78;1.02;;;;;;;4.99;71.02;100877.13;10442581;28;20413;-89
2022/10/24 07:42:25;;;;;;;2.22;0.98;;;;;;;5.47;69.07;100875.97;10413468;28;20037;-87
2022/10/24 07:47:27;;;;;;;3.90;0.95;;;;;;;5.83;66.53;100879.38;10413856;28;20052;-89
2022/10/24 07:52:30;;;;;;;1.92;0.80;;;;;;;6.09;65.93;100883.44;10407708;28;20480;-90
2022/10/24 07:57:32;;;;;;;1.38;0.68;;;;;;;6.20;64.28;100885.25;10433469;28;20045;-89
2022/10/24 08:02:34;;;;;;;1.98;0.80;;;;;;;6.34;63.48;100887.41;10429202;28;20076;-89
2022/10/24 08:07:37;;;;;;;2.42;0.95;;;;;;;5.96;63.79;100892.75;10441526;28;20049;-84
2022/10/24 08:12:39;;;;;;;1.98;0.77;;;;;;;5.54;64.30;100892.97;10442531;28;20125;-90
2022/10/24 08:17:41;;;;;;;2.40;0.70;;;;;;;5.17;66.04;100905.25;10441984;28;20049;-87
2022/10/24 08:22:44;;;;;;;2.38;1.08;;;;;;;4.98;66.04;100916.28;10439852;28;20208;-87
2022/10/24 08:27:46;;;;;;;1.83;0.95;;;;;;;4.69;66.46;100922.69;10441136;28;20049;-77
2022/10/24 08:32:49;;;;;;;2.13;0.82;;;;;;;4.36;67.78;100924.06;10441906;28;20049;-86
2022/10/24 08:37:51;;;;;;;4.53;1.05;;;;;;;4.21;68.55;100921.75;10417465;28;20045;-79
2022/10/24 08:42:53;;;;;;;4.03;1.20;;;;;;;4.09;68.56;100931.75;10440830;28;20053;-80
2022/10/24 08:48:02;;;;;;;1.55;1.23;;;;;;;3.94;68.58;100924.03;10448717;28;20056;-91
2022/10/24 08:53:18;;;;;;;1.60;0.80;;;;;;;3.78;68.83;100924.66;10450007;28;20056;-91
2022/10/24 08:58:30;;;;;;;1.55;1.00;;;;;;;3.68;68.85;100939.84;10448736;28;20404;-89
2022/10/24 09:03:37;;;;;;;2.45;1.20;;;;;;;3.73;69.23;100940.81;10419433;28;20057;-89
2022/10/24 09:08:50;;;;;;;2.72;1.33;;;;;;;3.78;70.23;100938.25;10450852;28;20045;-93
2022/10/24 09:13:53;;;;;;;1.70;1.00;;;;;;;3.83;69.81;100945.72;10445774;28;20037;-89
2022/10/24 09:18:55;;;;;;;1.75;0.90;;;;;;;3.90;69.95;100952.69;10446458;28;20535;-90
2022/10/24 09:23:58;;;;;;;6.18;1.15;;;;;;;3.91;70.34;100951.66;10445588;28;20049;-85
2022/10/24 09:29:00;;;;;;;2.65;1.35;;;;;;;3.84;70.07;100959.06;10445558;28;20049;-86
2022/10/24 09:34:03;;;;;;;1.88;1.00;;;;;;;3.88;70.15;100962.97;10445114;28;20045;-87
2022/10/24 09:39:29;;;;;;;2.15;1.30;;;;;;;3.81;70.30;100967.63;10441926;28;20466;-84
2022/10/24 09:44:32;;;;;;;2.53;1.17;;;;;;;3.76;70.29;100967.50;10437668;28;20050;-87
2022/10/24 09:49:36;;;;;;;1.38;0.95;;;;;;;3.80;70.41;100973.28;10445471;28;20049;-89
2022/10/24 09:54:38;;;;;;;3.30;0.90;;;;;;;3.64;70.31;100982.88;10441084;28;20045;-89
2022/10/24 09:59:45;;;;;;;0.70;0.65;;;;;;;3.60;71.05;100968.94;10461915;28;20045;-90
2022/10/24 10:04:57;;;;;;;5.88;1.23;;;;;;;3.59;71.20;100978.16;10447190;28;20044;-90
2022/10/24 10:10:03;;;;;;;3.05;1.10;;;;;;;3.71;71.24;100975.50;10441286;28;20057;-90
2022/10/24 10:15:23;;;;;;;1.02;0.85;;;;;;;3.76;70.94;100977.53;10404212;28;20505;-90
2022/10/24 10:20:40;;;;;;;2.63;0.93;;;;;;;3.68;71.08;100992.25;10430240;28;20057;-85
2022/10/24 10:25:42;;;;;;;2.65;0.93;;;;;;;3.77;71.17;100996.28;10441177;28;20411;-90
2022/10/24 10:30:50;;;;;;;1.25;0.95;;;;;;;3.71;70.75;100991.78;10444348;28;20037;-88
2022/10/24 10:36:16;;;;;;;1.55;0.85;;;;;;;3.67;70.88;100987.88;10442910;28;20056;-88
2022/10/24 10:41:24;;;;;;;2.67;0.75;;;;;;;3.77;70.98;100999.00;10443060;28;20056;-89
2022/10/24 10:46:38;;;;;;;1.52;1.23;;;;;;;3.94;70.32;100996.50;10456788;28;20051;-89
2022/10/24 10:51:47;;;;;;;2.78;1.10;;;;;;;3.99;69.67;101004.78;10455901;28;20042;-86
2022/10/24 10:56:53;;;;;;;1.42;0.90;;;;;;;4.04;69.85;100996.81;10437951;28;20053;-88
2022/10/24 11:02:15;;;;;;;7.88;1.23;;;;;;;4.13;70.29;100997.28;10442703;28;20049;-86
2022/10/24 11:07:41;;;;;;;1.80;0.88;;;;;;;4.20;69.36;100995.34;10417943;28;20427;-86
2022/10/24 11:12:45;;;;;;;1.70;0.80;;;;;;;4.18;68.50;100998.28;10483633;28;20045;-85
2022/10/24 11:17:55;;;;;;;1.45;0.82;;;;;;;4.20;69.07;101001.59;10462407;28;20041;-86
2022/10/24 11:23:11;;;;;;;1.20;1.00;;;;;;;4.15;68.73;101006.88;10454513;28;20038;-86
2022/10/24 11:28:34;;;;;;;1.25;0.90;;;;;;;4.18;68.27;101002.88;10451887;28;20037;-88
2022/10/24 11:33:55;;;;;;;2.55;1.58;;;;;;;4.26;68.64;100999.84;10432673;28;20032;-83
2022/10/24 11:39:05;;;;;;;1.40;1.30;;;;;;;4.28;67.67;101008.59;10444691;28;20046;-83
2022/10/24 11:44:18;;;;;;;1.40;0.85;;;;;;;4.31;68.18;100991.81;10398349;28;20042;-87
2022/10/24 11:49:24;;;;;;;1.70;1.20;;;;;;;4.38;68.43;100992.56;10433552;28;20053;-87
2022/10/24 11:54:44;;;;;;;1.38;0.60;;;;;;;4.51;68.68;100989.66;10428722;28;20034;-86
2022/10/24 11:59:47;;;;;;;1.38;0.68;;;;;;;4.53;68.59;100994.84;10466476;28;20504;-84
2022/10/24 12:05:09;;;;;;;1.85;0.68;;;;;;;4.63;68.07;100989.66;10448239;28;20420;-83
2022/10/24 12:10:14;;;;;;;2.42;0.60;;;;;;;4.75;68.09;101000.56;10442581;28;20041;-83
2022/10/24 12:15:51;;;;;;;5.10;1.05;;;;;;;4.77;68.04;100993.00;10448427;28;20052;-87
2022/10/24 12:20:54;;;;;;;1.90;0.90;;;;;;;4.83;67.16;100990.16;10446008;28;20045;-78
2022/10/24 12:26:05;;;;;;;0.70;0.57;;;;;;;4.81;67.14;100994.19;10462014;28;20045;-82
2022/10/24 12:31:14;;;;;;;1.80;0.77;;;;;;;5.62;66.40;100992.50;10456198;28;20049;-79
2022/10/24 12:36:59;;;;;;;1.27;1.02;;;;;;;6.01;64.95;100997.16;10456765;28;20407;-85
2022/10/24 12:42:02;;;;;;;1.45;0.63;;;;;;;6.03;64.14;100995.03;10443027;28;20044;-82
2022/10/24 12:47:27;;;;;;;2.38;0.90;;;;;;;5.84;64.54;101009.03;10438942;28;20053;-82
2022/10/24 12:52:30;;;;;;;1.52;0.77;;;;;;;6.12;63.34;100998.19;10439001;28;20435;-85
2022/10/24 12:57:36;;;;;;;1.52;0.80;;;;;;;6.13;64.02;100988.97;10444199;28;20049;-83
2022/10/24 13:02:52;;;;;;;1.85;0.70;;;;;;;6.07;63.72;101005.44;10451835;28;20037;-84
2022/10/24 13:07:57;;;;;;;0.75;0.75;;;;;;;6.23;63.65;100994.59;10447745;28;20056;-83
2022/10/24 13:13:21;;;;;;;1.05;0.77;;;;;;;6.02;63.73;101004.25;10442433;28;20053;-83
2022/10/24 13:18:33;;;;;;;1.55;0.90;;;;;;;6.44;63.56;101005.88;10448732;28;20529;-83
2022/10/24 13:23:36;;;;;;;2.05;0.85;;;;;;;6.47;63.34;101000.78;10430923;28;20061;-83
2022/10/24 13:28:39;;;;;;;1.25;0.60;;;;;;;6.42;63.20;101005.28;10443536;28;20044;-83
2022/10/24 13:33:43;;;;;;;0.70;0.50;;;;;;;6.22;63.46;101003.84;10442693;28;20037;-83
2022/10/24 13:38:57;;;;;;;1.35;0.65;;;;;;;6.11;64.46;101010.16;10440310;28;20040;-83
2022/10/24 13:44:04;;;;;;;1.80;1.15;;;;;;;6.19;63.89;101015.22;10460257;28;20037;-79
2022/10/24 13:49:07;;;;;;;1.50;0.87;;;;;;;6.35;63.03;101011.72;10437852;28;20048;-81
2022/10/24 13:54:20;;;;;;;1.70;1.00;;;;;;;6.35;63.41;101019.91;10441627;28;20420;-79
2022/10/24 13:59:36;;;;;;;5.93;0.90;;;;;;;6.44;63.22;101016.78;10440187;28;20037;-85
2022/10/24 14:04:44;;;;;;;6.13;0.95;;;;;;;6.48;62.95;101020.69;10447082;28;20049;-84
2022/10/24 14:09:54;;;;;;;3.70;0.90;;;;;;;6.43;63.30;101023.31;10434128;28;20141;-81
2022/10/24 14:14:57;;;;;;;1.38;0.95;;;;;;;6.50;62.51;101032.16;10439149;28;20416;-85
2022/10/24 14:20:24;;;;;;;1.77;1.10;;;;;;;6.37;63.01;101032.44;10420508;28;20049;-84
2022/10/24 14:25:35;;;;;;;1.75;1.20;;;;;;;6.45;62.72;101032.91;10444849;28;20419;-85
2022/10/24 14:30:37;;;;;;;3.65;1.27;;;;;;;6.44;63.31;101027.69;10421338;28;20049;-86
2022/10/24 14:35:40;;;;;;;4.00;1.17;;;;;;;6.52;62.90;101025.38;10423660;28;20060;-85
2022/10/24 14:40:44;;;;;;;4.07;1.20;;;;;;;6.57;62.54;101033.66;10423451;28;20052;-83
2022/10/24 14:46:06;;;;;;;1.70;1.13;;;;;;;6.53;62.41;101040.66;10443693;28;20443;-74
2022/10/24 14:51:17;;;;;;;5.32;1.38;;;;;;;6.41;62.50;101034.44;10444799;28;20057;-75
2022/10/24 14:56:26;;;;;;;2.72;1.30;;;;;;;6.39;62.76;101047.47;10443890;28;20049;-74
2022/10/24 15:01:28;;;;;;;3.53;1.88;;;;;;;6.47;63.18;101038.09;10430666;28;20034;-76
2022/10/24 15:06:38;;;;;;;5.22;1.65;;;;;;;6.04;63.20;101050.34;10435046;28;20427;-76
2022/10/24 15:11:44;;;;;;;6.13;2.45;;;;;;;5.24;64.85;101055.63;10445263;28;20045;-75
2022/10/24 15:16:46;;;;;;;4.00;1.98;;;;;;;4.81;66.08;101054.00;10441551;28;20037;-75
2022/10/24 15:21:48;;;;;;;5.70;1.67;;;;;;;4.49;66.56;101058.84;10425997;28;20060;-76
2022/10/24 15:26:52;;;;;;;2.38;1.50;;;;;;;4.24;68.18;101062.53;10420784;28;20096;-76
2022/10/24 15:31:54;;;;;;;4.68;2.42;;;;;;;4.03;68.97;101052.16;10421015;28;20044;-75
2022/10/24 15:36:56;;;;;;;3.72;1.63;;;;;;;3.89;68.98;101070.50;10449441;28;20536;-76
2022/10/24 15:41:59;;;;;;;7.93;2.20;;;;;;;3.81;70.11;101068.06;10433595;28;20049;-75
2022/10/24 15:47:01;;;;;;;7.88;2.15;;;;;;;3.74;70.88;101063.78;10463135;28;20550;-74
2022/10/24 15:52:06;;;;;;;5.30;2.13;;;;;;;3.65;71.49;101068.69;10465121;28;20056;-75
2022/10/24 15:57:12;;;;;;;5.57;1.95;;;;;;;3.62;71.69;101079.97;10445893;28;20038;-76
2022/10/24 16:02:18;;;;;;;3.00;1.58;;;;;;;3.57;72.25;101090.69;10445623;28;20045;-75
2022/10/24 16:07:21;;;;;;;3.08;1.50;;;;;;;3.53;72.63;101093.00;10459754;28;22092;-75
2022/10/24 16:12:23;;;;;;;7.05;2.00;;;;;;;3.47;72.55;101090.34;10470358;28;20043;-75
2022/10/24 16:17:26;;;;;;;6.43;2.85;;;;;;;3.46;72.82;101102.25;10479157;28;20045;-76
2022/10/24 16:22:28;;;;;;;7.07;3.85;;;;;;;3.46;73.25;101102.25;10484031;28;20044;-75
2022/10/24 16:27:30;;;;;;;6.13;3.08;;;;;;;3.37;73.18;101104.44;10452625;28;20044;-75
2022/10/24 16:32:32;;;;;;;7.20;2.65;;;;;;;3.30;73.82;101109.94;10482600;28;20179;-75
2022/10/24 16:37:34;;;;;;;6.18;2.42;;;;;;;3.24;73.95;101108.09;10441023;28;20054;-77
2022/10/24 16:42:37;;;;;;;7.93;3.03;;;;;;;3.19;74.45;101116.06;10447263;28;20148;-79
2022/10/24 16:47:39;;;;;;;9.20;3.38;;;;;;;3.18;74.63;101114.41;10423229;28;20041;-79
2022/10/24 16:52:43;;;;;;;6.88;2.75;;;;;;;3.15;74.79;101106.72;10448193;28;20050;-79
2022/10/24 16:57:45;;;;;;;7.43;2.78;;;;;;;3.12;74.47;101111.72;10444600;28;20044;-80
2022/10/24 17:02:50;;;;;;;6.57;2.83;;;;;;;3.13;74.29;101103.41;10456365;28;20042;-79
2022/10/24 17:07:52;;;;;;;4.75;2.30;;;;;;;3.10;74.39;101109.22;10447825;28;20045;-77
2022/10/24 17:12:55;;;;;;;4.47;2.38;;;;;;;3.08;74.28;101114.06;10434401;28;20038;-78
2022/10/24 17:17:57;;;;;;;7.78;2.60;;;;;;;3.09;74.13;101117.59;10436550;28;20073;-85
2022/10/24 17:22:59;;;;;;;5.40;3.42;;;;;;;3.11;74.15;101119.03;10405871;28;20036;-84
2022/10/24 17:28:02;;;;;;;5.25;3.40;;;;;;;3.13;74.46;101121.53;10436289;28;20061;-87
2022/10/24 17:33:04;;;;;;;7.78;3.05;;;;;;;3.11;74.12;101121.75;10437736;28;20112;-82
2022/10/24 17:38:16;;;;;;;4.63;2.83;;;;;;;3.12;74.25;101119.84;10424615;28;20052;-76
2022/10/24 17:43:20;;;;;;;7.13;3.88;;;;;;;3.10;73.77;101120.09;10447011;28;20057;-75
2022/10/24 17:48:23;;;;;;;5.97;3.20;;;;;;;3.07;74.17;101120.53;10433573;28;20058;-75
2022/10/24 17:53:25;;;;;;;6.45;2.95;;;;;;;3.06;74.21;101124.28;10428942;28;20041;-75
2022/10/24 17:58:27;;;;;;;5.68;3.63;;;;;;;3.05;74.26;101114.50;10418244;28;20428;-73
2022/10/24 18:03:30;;;;;;;8.20;3.13;;;;;;;3.03;74.21;101117.44;10414600;28;20048;-73
2022/10/24 18:08:32;;;;;;;9.40;2.95;;;;;;;3.00;74.18;101117.88;10443740;28;20052;-73
2022/10/24 18:13:38;;;;;;;6.68;2.83;;;;;;;3.00;73.87;101120.59;10449387;28;20048;-77
2022/10/24 18:18:41;;;;;;;7.63;4.13;;;;;;;3.00;74.06;101119.75;10469236;28;20049;-83
2022/10/24 18:23:49;;;;;;;7.07;3.33;;;;;;;2.96;74.59;101113.13;10443223;28;20041;-74
2022/10/24 18:28:53;;;;;;;10.07;4.22;;;;;;;2.91;74.51;101123.75;10455956;28;20042;-72
2022/10/24 18:33:58;;;;;;;12.30;4.85;;;;;;;2.90;74.71;101130.25;10468203;28;20526;-81
2022/10/24 18:39:00;;;;;;;11.07;6.05;;;;;;;2.86;75.68;101135.28;10430711;28;20049;-82
2022/10/24 18:44:27;;;;;;;14.23;6.05;;;;;;;2.73;76.06;101141.59;10445425;28;20049;-84
2022/10/24 18:49:32;;;;;;;15.40;6.43;;;;;;;2.64;78.05;101137.50;10427942;28;20531;-81
2022/10/24 18:54:37;;;;;;;7.70;3.97;;;;;;;2.51;78.75;101136.72;10440270;28;20500;-81
2022/10/24 18:59:39;;;;;;;13.15;5.03;;;;;;;2.44;78.24;101142.19;10443651;28;20041;-81
2022/10/24 19:04:43;;;;;;;8.05;3.63;;;;;;;2.34;78.40;101131.78;10441255;28;20412;-87
2022/10/24 19:09:45;;;;;;;9.75;4.65;;;;;;;2.29;78.60;101145.16;10453204;28;20049;-78
2022/10/24 19:14:47;;;;;;;6.13;3.25;;;;;;;2.29;78.97;101133.50;10448777;28;20412;-77
2022/10/24 19:19:50;;;;;;;5.75;3.13;;;;;;;2.32;77.86;101131.19;10440586;28;20413;-87
2022/10/24 19:25:17;;;;;;;5.18;3.28;;;;;;;2.33;78.07;101137.44;10452299;28;20045;-90
2022/10/24 19:30:19;;;;;;;7.80;4.10;;;;;;;2.31;77.30;101140.34;10441154;28;20049;-79
2022/10/24 19:35:21;;;;;;;6.38;4.38;;;;;;;2.30;77.78;101129.75;10446070;28;20123;-78
2022/10/24 19:40:26;;;;;;;7.75;4.53;;;;;;;2.28;77.16;101137.25;10422272;28;20037;-83
2022/10/24 19:45:28;;;;;;;7.38;4.45;;;;;;;2.27;77.21;101130.19;10441640;28;20080;-76
2022/10/24 19:50:31;;;;;;;8.15;3.65;;;;;;;2.27;76.94;101132.88;10447152;28;20049;-77
2022/10/24 19:55:36;;;;;;;7.55;3.10;;;;;;;2.26;76.73;101134.75;10442497;28;20407;-80
2022/10/24 20:00:39;;;;;;;8.88;4.07;;;;;;;2.24;76.74;101133.28;10439512;28;20049;-76
2022/10/24 20:05:42;;;;;;;8.57;4.93;;;;;;;2.23;77.54;101145.16;10439375;28;20053;-77
2022/10/24 20:10:50;;;;;;;7.65;3.55;;;;;;;2.17;77.54;101137.91;10438850;28;20522;-80
2022/10/24 20:15:53;;;;;;;7.63;3.63;;;;;;;2.13;77.24;101134.81;10442150;28;20507;-89
2022/10/24 20:20:55;;;;;;;7.55;3.55;;;;;;;2.13;77.65;101147.50;10448892;28;20518;-80
2022/10/24 20:26:00;;;;;;;16.50;8.10;;;;;;;2.07;77.98;101125.63;10443269;28;20270;-79
2022/10/24 20:31:05;;;;;;;8.05;4.97;;;;;;;2.07;78.47;101128.34;10446500;28;20420;-84
2022/10/24 20:36:07;;;;;;;8.63;4.90;;;;;;;2.09;78.20;101122.75;10438806;28;20042;-95
2022/10/24 20:41:12;;;;;;;8.05;4.90;;;;;;;2.12;78.39;101133.13;10409956;28;20534;-81
2022/10/24 20:46:14;;;;;;;13.20;5.63;;;;;;;2.13;78.77;101129.38;10432332;28;20025;-79
2022/10/24 20:51:18;;;;;;;13.07;4.60;;;;;;;2.08;79.08;101126.47;10422508;28;20041;-77
2022/10/24 20:56:22;;;;;;;14.98;5.82;;;;;;;2.06;79.10;101132.09;10447827;28;20041;-77
2022/10/24 21:01:26;;;;;;;11.45;5.88;;;;;;;2.02;79.53;101133.56;10449297;28;20041;-76
2022/10/24 21:06:32;;;;;;;12.63;6.43;;;;;;;1.95;79.47;101124.66;10428651;28;20469;-75
2022/10/24 21:11:34;;;;;;;13.20;6.53;;;;;;;1.83;80.12;101134.47;10461003;28;20045;-88
2022/10/24 21:16:36;;;;;;;16.85;6.63;;;;;;;1.81;80.28;101147.38;10455130;28;20045;-86
2022/10/24 21:21:39;;;;;;;13.45;6.28;;;;;;;1.75;80.70;101142.81;10469858;28;20049;-79
2022/10/24 21:26:41;;;;;;;12.90;6.18;;;;;;;1.67;81.34;101151.13;10451885;28;20056;-83
2022/10/24 21:31:43;;;;;;;13.63;6.68;;;;;;;1.59;80.88;101159.47;10453566;28;20423;-82
2022/10/24 21:36:45;;;;;;;16.95;8.02;;;;;;;1.52;81.60;101157.59;10447129;28;20037;-80
2022/10/24 21:41:47;;;;;;;13.63;6.60;;;;;;;1.45;81.99;101164.06;10439829;28;20511;-79
2022/10/24 21:46:50;;;;;;;15.82;7.30;;;;;;;1.39;81.84;101154.91;10444468;28;20042;-80
2022/10/24 21:51:52;;;;;;;19.48;7.53;;;;;;;1.40;82.13;101159.28;10434967;28;20049;-82
2022/10/24 21:56:55;;;;;;;16.40;7.88;;;;;;;1.37;82.88;101151.56;10440992;28;20049;-81
2022/10/24 22:01:57;;;;;;;18.75;8.50;;;;;;;1.37;83.35;101162.38;10447730;28;20037;-80
2022/10/24 22:06:59;;;;;;;16.27;8.38;;;;;;;1.43;82.85;101156.16;10461660;28;20063;-85
2022/10/24 22:12:01;;;;;;;18.10;7.93;;;;;;;1.48;82.60;101156.34;10428319;28;20041;-76
2022/10/24 22:17:03;;;;;;;16.27;7.75;;;;;;;1.47;82.86;101153.84;10465555;28;20038;-75
2022/10/24 22:22:05;;;;;;;23.02;8.25;;;;;;;1.52;82.84;101159.47;10453916;28;20053;-75
2022/10/24 22:27:07;;;;;;;15.10;8.38;;;;;;;1.55;82.27;101155.50;10442337;28;20044;-75
2022/10/24 22:32:14;;;;;;;16.83;7.38;;;;;;;1.55;82.48;101160.91;10446043;28;20045;-86
2022/10/24 22:37:22;;;;;;;13.63;5.95;;;;;;;1.51;82.51;101155.94;10434884;28;20512;-79
2022/10/24 22:42:24;;;;;;;11.88;6.28;;;;;;;1.50;82.13;101156.16;10434331;28;20033;-80
2022/10/24 22:47:49;;;;;;;14.52;6.57;;;;;;;1.53;81.88;101155.72;10444447;28;20496;-79
2022/10/24 22:52:52;;;;;;;19.88;10.43;;;;;;;1.54;81.98;101154.69;10447889;28;20037;-79
2022/10/24 22:57:54;;;;;;;15.23;7.50;;;;;;;1.51;81.91;101157.81;10450406;28;20042;-82
2022/10/24 23:03:24;;;;;;;20.58;5.93;;;;;;;1.51;81.87;101164.03;10447483;28;20037;-79
2022/10/24 23:08:32;;;;;;;12.55;5.88;;;;;;;1.52;81.81;101163.00;10439124;28;20522;-77
2022/10/24 23:13:35;;;;;;;9.27;5.25;;;;;;;1.52;82.00;101163.00;10438371;28;20673;-77
2022/10/24 23:18:37;;;;;;;11.45;6.43;;;;;;;1.55;81.96;101155.50;10441351;28;20041;-79
2022/10/24 23:23:39;;;;;;;16.10;7.00;;;;;;;1.50;82.01;101159.69;10446686;28;20603;-88
2022/10/24 23:28:49;;;;;;;12.15;5.70;;;;;;;1.48;81.71;101160.94;10449213;28;20055;-82
2022/10/24 23:33:52;;;;;;;9.77;6.15;;;;;;;1.44;82.21;101165.09;10450698;28;20045;-78
2022/10/24 23:38:54;;;;;;;17.95;6.50;;;;;;;1.44;82.13;101173.22;10447065;28;20041;-84
2022/10/24 23:43:56;;;;;;;13.13;5.45;;;;;;;1.49;82.09;101182.34;10442697;28;20033;-77